^^
Saratoga-Weather Station Historical Data
Daily Summary for June 10, 2020 Units:  Metric    English   Both
Daily Weekly Monthly Yearly Custom
  High: Low: Average:
Temperature: 22.6 °C 16.9 °C 19.8 °C
Dew Point: 15.2 °C 12 °C 14.1 °C
Humidity: 85% 59% 70%
Wind Speed: 22.5km/h 0km/h 5.9km/h
Wind Gust: 22.5km/h - -
Wind- - West
Pressure: 1018.0 hPa 1008.8 hPa -
Precipitation: 0.0 mm    
Historical Graphs
 
 
Tabular Data for June 10, 2020
Time Temperature Dew Point Pressure Wind Wind Speed Wind Gust Humidity Rainfall Rate (Hourly) solar
00:01 21.3 °C 14.9 °C 1009.8 hPa Calm     67% 0.0 mm 0 W/m2
00:06 21.1 °C 14.7 °C 1009.8 hPa Calm     67% 0.0 mm 0 W/m2
00:11 21 °C 14.6 °C 1009.8 hPa Calm     67% 0.0 mm 0 W/m2
00:17 20.9 °C 14.8 °C 1009.8 hPa Calm     68% 0.0 mm 0 W/m2
00:22 20.8 °C 14.7 °C 1009.8 hPa Calm     68% 0.0 mm 0 W/m2
00:27 20.7 °C 14.6 °C 1009.8 hPa Calm     68% 0.0 mm 0 W/m2
00:32 20.7 °C 14.8 °C 1009.8 hPa Calm     69% 0.0 mm 0 W/m2
00:37 20.6 °C 14.7 °C 1009.8 hPa Calm     69% 0.0 mm 0 W/m2
00:42 20.6 °C 14.7 °C 1009.8 hPa Calm     69% 0.0 mm 0 W/m2
00:47 20.6 °C 14.7 °C 1009.8 hPa Calm     69% 0.0 mm 0 W/m2
00:52 20.6 °C 14.7 °C 1009.8 hPa Calm     69% 0.0 mm 0 W/m2
00:57 20.6 °C 14.7 °C 1009.5 hPa SSE 1.4 km/h 1.6 km/h 69% 0.0 mm 0 W/m2
01:02 20.6 °C 14.7 °C 1009.5 hPa Calm     69% 0.0 mm 0 W/m2
01:07 20.6 °C 14.5 °C 1009.5 hPa Calm   1.6 km/h 68% 0.0 mm 0 W/m2
01:12 20.7 °C 14.6 °C 1009.5 hPa Calm   1.6 km/h 68% 0.0 mm 0 W/m2
01:17 20.7 °C 14.6 °C 1009.5 hPa SSE 3.2 km/h 3.2 km/h 68% 0.0 mm 0 W/m2
01:22 20.8 °C 14.7 °C 1009.5 hPa ENE 1.4 km/h 1.6 km/h 68% 0.0 mm 0 W/m2
01:27 21.2 °C 14.4 °C 1009.5 hPa South 1.4 km/h 4.8 km/h 65% 0.0 mm 0 W/m2
01:32 21.7 °C 14.3 °C 1009.5 hPa WNW 1.4 km/h 1.6 km/h 63% 0.0 mm 0 W/m2
01:37 21.9 °C 14.5 °C 1009.5 hPa West 1.4 km/h 1.6 km/h 63% 0.0 mm 0 W/m2
01:42 21.8 °C 14.9 °C 1009.1 hPa East 6.4 km/h 6.4 km/h 65% 0.0 mm 0 W/m2
01:47 22.1 °C 14.5 °C 1009.5 hPa WNW 1.4 km/h 4.8 km/h 62% 0.0 mm 0 W/m2
01:52 22.3 °C 14.4 °C 1009.1 hPa NNW 1.4 km/h 3.2 km/h 61% 0.0 mm 0 W/m2
01:57 22.3 °C 14.2 °C 1009.1 hPa Calm   1.6 km/h 60% 0.0 mm 0 W/m2
02:02 22.3 °C 14.4 °C 1009.1 hPa Calm   1.6 km/h 61% 0.0 mm 0 W/m2
02:07 22.2 °C 14.6 °C 1009.1 hPa NE 1.4 km/h 1.6 km/h 62% 0.0 mm 0 W/m2
02:12 22.2 °C 14.6 °C 1009.1 hPa Calm   1.6 km/h 62% 0.0 mm 0 W/m2
02:17 22.4 °C 14.3 °C 1009.1 hPa Calm     60% 0.0 mm 0 W/m2
02:22 22.4 °C 14.3 °C 1009.1 hPa NW 1.4 km/h 1.6 km/h 60% 0.0 mm 0 W/m2
02:27 22.3 °C 14.4 °C 1009.1 hPa Calm     61% 0.0 mm 0 W/m2
02:33 22.2 °C 14.1 °C 1009.1 hPa SW 1.4 km/h 1.6 km/h 60% 0.0 mm 0 W/m2
02:38 22.2 °C 14.1 °C 1009.1 hPa NNE 1.4 km/h 1.6 km/h 60% 0.0 mm 0 W/m2
02:43 22.3 °C 14.2 °C 1008.8 hPa NW 4.7 km/h 6.4 km/h 60% 0.0 mm 0 W/m2
02:48 22.4 °C 14.3 °C 1009.1 hPa NW 1.4 km/h 3.2 km/h 60% 0.0 mm 0 W/m2
02:53 22.4 °C 14.3 °C 1009.1 hPa NW 4.7 km/h 11.3 km/h 60% 0.0 mm 0 W/m2
02:58 22.3 °C 14.2 °C 1009.1 hPa NW 1.4 km/h 4.8 km/h 60% 0.0 mm 0 W/m2
03:03 22.3 °C 14.2 °C 1009.1 hPa WNW 3.2 km/h 3.2 km/h 60% 0.0 mm 0 W/m2
03:08 22.2 °C 14.1 °C 1009.1 hPa WSW 1.4 km/h 4.8 km/h 60% 0.0 mm 0 W/m2
03:13 22.1 °C 14.2 °C 1009.1 hPa WNW 3.2 km/h 8 km/h 61% 0.0 mm 0 W/m2
03:18 22.1 °C 14.2 °C 1008.8 hPa NW 4.7 km/h 9.7 km/h 61% 0.0 mm 0 W/m2
03:23 21.9 °C 14 °C 1008.8 hPa SSW 1.4 km/h 6.4 km/h 61% 0.0 mm 0 W/m2
03:28 21.8 °C 13.9 °C 1008.8 hPa WNW 3.2 km/h 4.8 km/h 61% 0.0 mm 0 W/m2
03:33 21.7 °C 14.1 °C 1008.8 hPa NW 3.2 km/h 3.2 km/h 62% 0.0 mm 0 W/m2
03:38 21.6 °C 14.3 °C 1008.8 hPa WNW 1.4 km/h 9.7 km/h 63% 0.0 mm 0 W/m2
03:43 21.4 °C 14.1 °C 1008.8 hPa West 3.2 km/h 6.4 km/h 63% 0.0 mm 0 W/m2
03:48 21.2 °C 14.1 °C 1008.8 hPa Calm   8 km/h 64% 0.0 mm 0 W/m2
03:53 21.1 °C 14 °C 1008.8 hPa NW 4.7 km/h 6.4 km/h 64% 0.0 mm 0 W/m2
03:58 20.9 °C 14.1 °C 1008.8 hPa WSW 4.7 km/h 6.4 km/h 65% 0.0 mm 0 W/m2
04:03 20.8 °C 14 °C 1008.8 hPa West 3.2 km/h 4.8 km/h 65% 0.0 mm 0 W/m2
04:09 20.7 °C 14.1 °C 1008.8 hPa SW 4.7 km/h 6.4 km/h 66% 0.0 mm 0 W/m2
04:14 20.5 °C 13.9 °C 1008.8 hPa WSW 4.7 km/h 12.9 km/h 66% 0.0 mm 0 W/m2
04:19 20.4 °C 14.1 °C 1008.8 hPa NW 7.9 km/h 9.7 km/h 67% 0.0 mm 0 W/m2
04:24 20.3 °C 14 °C 1008.8 hPa West 4.7 km/h 12.9 km/h 67% 0.0 mm 0 W/m2
04:29 20.2 °C 14.1 °C 1008.8 hPa NW 6.4 km/h 8 km/h 68% 0.0 mm 0 W/m2
04:34 20.1 °C 14 °C 1008.8 hPa WSW 4.7 km/h 17.7 km/h 68% 0.0 mm 0 W/m2
04:39 19.9 °C 13.8 °C 1008.8 hPa West 6.4 km/h 9.7 km/h 68% 0.0 mm 0 W/m2
04:44 19.8 °C 13.9 °C 1009.1 hPa NW 7.9 km/h 17.7 km/h 69% 0.0 mm 0 W/m2
04:49 19.7 °C 14.1 °C 1008.8 hPa WSW 4.7 km/h 11.3 km/h 70% 0.0 mm 0 W/m2
04:54 19.5 °C 13.9 °C 1009.1 hPa WSW 6.4 km/h 11.3 km/h 70% 0.0 mm 0 W/m2
04:59 19.4 °C 14 °C 1009.1 hPa WSW 16.3 km/h 16.1 km/h 71% 0.0 mm 0 W/m2
05:04 19.3 °C 14.1 °C 1009.1 hPa NW 6.4 km/h 12.9 km/h 72% 0.0 mm 0 W/m2
05:09 19.2 °C 14.2 °C 1009.1 hPa West 6.4 km/h 16.1 km/h 73% 0.0 mm 0 W/m2
05:14 19 °C 14.3 °C 1009.1 hPa WNW 4.7 km/h 9.7 km/h 74% 0.0 mm 0 W/m2
05:19 18.9 °C 14.4 °C 1009.1 hPa WNW 7.9 km/h 16.1 km/h 75% 0.0 mm 0 W/m2
05:24 18.8 °C 14.3 °C 1009.5 hPa West 11.1 km/h 14.5 km/h 75% 0.0 mm 0 W/m2
05:29 18.7 °C 14.6 °C 1009.5 hPa West 11.1 km/h 12.9 km/h 77% 0.0 mm 0 W/m2
05:34 18.6 °C 14.5 °C 1009.5 hPa West 4.7 km/h 12.9 km/h 77% 0.0 mm 0 W/m2
05:39 18.5 °C 14.6 °C 1009.8 hPa West 11.1 km/h 16.1 km/h 78% 0.0 mm 0 W/m2
05:44 18.4 °C 14.5 °C 1009.8 hPa West 4.7 km/h 12.9 km/h 78% 0.0 mm 0 W/m2
05:49 18.3 °C 14.6 °C 1009.8 hPa WSW 13 km/h 14.5 km/h 79% 0.0 mm 0 W/m2
05:54 18.2 °C 14.5 °C 1009.8 hPa WSW 16.3 km/h 16.1 km/h 79% 0.0 mm 5 W/m2
05:59 18.2 °C 14.5 °C 1009.8 hPa WSW 13 km/h 12.9 km/h 79% 0.0 mm 9 W/m2
06:04 18.1 °C 14.6 °C 1009.8 hPa West 9.7 km/h 16.1 km/h 80% 0.0 mm 11 W/m2
06:09 17.9 °C 14.4 °C 1010.2 hPa West 4.7 km/h 9.7 km/h 80% 0.0 mm 16 W/m2
06:14 17.8 °C 14.5 °C 1010.2 hPa WNW 14.5 km/h 14.5 km/h 81% 0.0 mm 18 W/m2
06:19 17.7 °C 14.4 °C 1010.2 hPa WNW 4.7 km/h 11.3 km/h 81% 0.0 mm 23 W/m2
06:24 17.7 °C 14.4 °C 1010.2 hPa WSW 6.4 km/h 12.9 km/h 81% 0.0 mm 25 W/m2
06:29 17.7 °C 14.6 °C 1010.2 hPa WNW 4.7 km/h 16.1 km/h 82% 0.0 mm 26 W/m2
06:34 17.7 °C 14.4 °C 1010.2 hPa WNW 13 km/h 12.9 km/h 81% 0.0 mm 33 W/m2
06:39 17.7 °C 14.4 °C 1010.2 hPa West 6.4 km/h 14.5 km/h 81% 0.0 mm 33 W/m2
06:44 17.7 °C 14.6 °C 1010.2 hPa WSW 6.4 km/h 6.4 km/h 82% 0.0 mm 32 W/m2
06:49 17.7 °C 14.6 °C 1010.2 hPa West 4.7 km/h 11.3 km/h 82% 0.0 mm 28 W/m2
06:54 17.6 °C 14.5 °C 1010.2 hPa West 11.1 km/h 11.3 km/h 82% 0.0 mm 32 W/m2
06:59 17.5 °C 14.4 °C 1010.2 hPa WNW 6.4 km/h 6.4 km/h 82% 0.0 mm 32 W/m2
07:04 17.4 °C 14.5 °C 1010.2 hPa West 9.7 km/h 14.5 km/h 83% 0.0 mm 30 W/m2
07:09 17.3 °C 14.4 °C 1010.2 hPa West 3.2 km/h 6.4 km/h 83% 0.0 mm 32 W/m2
07:14 17.3 °C 14.4 °C 1010.5 hPa WNW 4.7 km/h 14.5 km/h 83% 0.0 mm 37 W/m2
07:19 17.3 °C 14.4 °C 1010.5 hPa West 11.1 km/h 11.3 km/h 83% 0.0 mm 51 W/m2
07:24 17.3 °C 14.4 °C 1010.5 hPa WSW 7.9 km/h 11.3 km/h 83% 0.0 mm 53 W/m2
07:29 17.4 °C 14.5 °C 1010.5 hPa WNW 6.4 km/h 11.3 km/h 83% 0.0 mm 47 W/m2
07:34 17.4 °C 14.5 °C 1010.2 hPa WNW 1.4 km/h 12.9 km/h 83% 0.0 mm 51 W/m2
07:39 17.3 °C 14.4 °C 1010.5 hPa West 1.4 km/h 14.5 km/h 83% 0.0 mm 53 W/m2
07:44 17.2 °C 14.3 °C 1010.2 hPa West 9.7 km/h 12.9 km/h 83% 0.0 mm 53 W/m2
07:49 17.1 °C 14.2 °C 1010.2 hPa WSW 6.4 km/h 16.1 km/h 83% 0.0 mm 46 W/m2
07:54 16.9 °C 14.2 °C 1010.5 hPa WNW 3.2 km/h 12.9 km/h 84% 0.0 mm 60 W/m2
07:59 16.9 °C 14.4 °C 1010.5 hPa West 6.4 km/h 12.9 km/h 85% 0.0 mm 172 W/m2
08:04 17.1 °C 14.4 °C 1010.5 hPa WNW 6.4 km/h 12.9 km/h 84% 0.0 mm 90 W/m2
08:09 17.1 °C 14.4 °C 1010.5 hPa WNW 4.7 km/h 12.9 km/h 84% 0.0 mm 77 W/m2
08:14 17.1 °C 14.4 °C 1010.8 hPa WNW 4.7 km/h 12.9 km/h 84% 0.0 mm 72 W/m2
08:19 17.1 °C 14.4 °C 1010.8 hPa WNW 3.2 km/h 9.7 km/h 84% 0.0 mm 100 W/m2
08:24 17.2 °C 14.5 °C 1010.8 hPa SW 4.7 km/h 12.9 km/h 84% 0.0 mm 97 W/m2
08:29 17.2 °C 14.5 °C 1010.8 hPa WNW 7.9 km/h 12.9 km/h 84% 0.0 mm 93 W/m2
08:34 17.3 °C 14.6 °C 1010.8 hPa NW 3.2 km/h 11.3 km/h 84% 0.0 mm 95 W/m2
08:39 17.4 °C 14.7 °C 1010.8 hPa NW 7.9 km/h 11.3 km/h 84% 0.0 mm 83 W/m2
08:44 17.6 °C 14.7 °C 1010.8 hPa NW 6.4 km/h 11.3 km/h 83% 0.0 mm 91 W/m2
08:49 17.7 °C 14.8 °C 1010.8 hPa West 3.2 km/h 16.1 km/h 83% 0.0 mm 90 W/m2
08:54 17.7 °C 14.8 °C 1010.8 hPa West 11.1 km/h 16.1 km/h 83% 0.0 mm 74 W/m2
08:59 17.8 °C 14.9 °C 1011.2 hPa NW 6.4 km/h 9.7 km/h 83% 0.0 mm 86 W/m2
09:04 17.8 °C 14.7 °C 1011.2 hPa West 9.7 km/h 14.5 km/h 82% 0.0 mm 97 W/m2
09:09 17.9 °C 14.8 °C 1011.2 hPa WNW 6.4 km/h 11.3 km/h 82% 0.0 mm 93 W/m2
09:14 17.9 °C 14.8 °C 1011.2 hPa WNW 6.4 km/h 17.7 km/h 82% 0.0 mm 76 W/m2
09:19 17.9 °C 14.8 °C 1011.2 hPa West 6.4 km/h 16.1 km/h 82% 0.0 mm 86 W/m2
09:24 18 °C 14.7 °C 1011.2 hPa WNW 13 km/h 17.7 km/h 81% 0.0 mm 127 W/m2
09:29 18.1 °C 14.8 °C 1011.2 hPa WNW 4.7 km/h 11.3 km/h 81% 0.0 mm 139 W/m2
09:34 18.2 °C 14.7 °C 1011.2 hPa WNW 3.2 km/h 16.1 km/h 80% 0.0 mm 163 W/m2
09:39 18.4 °C 14.9 °C 1011.2 hPa WSW 7.9 km/h 12.9 km/h 80% 0.0 mm 239 W/m2
09:44 18.7 °C 15 °C 1011.2 hPa NNW 4.7 km/h 14.5 km/h 79% 0.0 mm 290 W/m2
09:49 18.8 °C 14.9 °C 1011.5 hPa WNW 6.4 km/h 12.9 km/h 78% 0.0 mm 127 W/m2
09:54 18.9 °C 15 °C 1011.2 hPa WNW 6.4 km/h 9.7 km/h 78% 0.0 mm 121 W/m2
09:59 18.8 °C 14.9 °C 1011.5 hPa SSW 3.2 km/h 19.3 km/h 78% 0.0 mm 105 W/m2
10:04 18.7 °C 14.6 °C 1011.5 hPa West 19.5 km/h 19.3 km/h 77% 0.0 mm 139 W/m2
10:10 18.7 °C 14.8 °C 1011.9 hPa WNW 13 km/h 14.5 km/h 78% 0.0 mm 193 W/m2
10:15 18.8 °C 14.7 °C 1011.9 hPa WNW 11.1 km/h 17.7 km/h 77% 0.0 mm 109 W/m2
10:20 18.8 °C 14.7 °C 1011.9 hPa West 6.4 km/h 14.5 km/h 77% 0.0 mm 53 W/m2
10:25 18.7 °C 14.6 °C 1011.9 hPa West 11.1 km/h 12.9 km/h 77% 0.0 mm 155 W/m2
10:30 18.7 °C 14.8 °C 1011.9 hPa WSW 7.9 km/h 14.5 km/h 78% 0.0 mm 123 W/m2
10:35 18.7 °C 14.8 °C 1011.9 hPa SW 3.2 km/h 6.4 km/h 78% 0.0 mm 155 W/m2
10:40 18.7 °C 15.2 °C 1012.2 hPa West 4.7 km/h 9.7 km/h 80% 0.0 mm 142 W/m2
10:45 18.4 °C 15.1 °C 1012.2 hPa West 4.7 km/h 11.3 km/h 81% 0.0 mm 248 W/m2
10:50 18.3 °C 15 °C 1012.2 hPa NW 9.7 km/h 12.9 km/h 81% 0.0 mm 130 W/m2
10:55 18.1 °C 15 °C 1012.2 hPa SW 6.4 km/h 6.4 km/h 82% 0.0 mm 156 W/m2
11:00 18.1 °C 14.8 °C 1012.2 hPa SW 7.9 km/h 9.7 km/h 81% 0.0 mm 167 W/m2
11:05 18.1 °C 14.8 °C 1012.2 hPa West 9.7 km/h 11.3 km/h 81% 0.0 mm 206 W/m2
11:10 18.2 °C 14.7 °C 1012.2 hPa West 16.3 km/h 20.9 km/h 80% 0.0 mm 253 W/m2
11:15 18.4 °C 14.9 °C 1012.5 hPa West 9.7 km/h 12.9 km/h 80% 0.0 mm 243 W/m2
11:20 18.6 °C 15.1 °C 1012.5 hPa WNW 6.4 km/h 17.7 km/h 80% 0.0 mm 338 W/m2
11:25 18.8 °C 15.1 °C 1012.5 hPa NE 1.4 km/h 8 km/h 79% 0.0 mm 230 W/m2
11:30 18.9 °C 15 °C 1012.5 hPa West 4.7 km/h 12.9 km/h 78% 0.0 mm 274 W/m2
11:35 19.1 °C 15.2 °C 1012.5 hPa West 4.7 km/h 4.8 km/h 78% 0.0 mm 281 W/m2
11:40 19.1 °C 15 °C 1012.5 hPa West 4.7 km/h 8 km/h 77% 0.0 mm 202 W/m2
11:45 19.2 °C 15.1 °C 1012.9 hPa WNW 13 km/h 12.9 km/h 77% 0.0 mm 272 W/m2
11:50 19.3 °C 15 °C 1012.9 hPa WNW 4.7 km/h 19.3 km/h 76% 0.0 mm 352 W/m2
11:55 19.3 °C 15 °C 1012.9 hPa NW 13 km/h 16.1 km/h 76% 0.0 mm 237 W/m2
12:00 19.3 °C 15 °C 1012.9 hPa WNW 6.4 km/h 8 km/h 76% 0.0 mm 209 W/m2
12:05 19.3 °C 14.8 °C 1012.9 hPa WNW 6.4 km/h 14.5 km/h 75% 0.0 mm 232 W/m2
12:10 19.6 °C 15 °C 1012.9 hPa WNW 7.9 km/h 12.9 km/h 75% 0.0 mm 265 W/m2
12:15 19.7 °C 14.9 °C 1012.9 hPa WNW 6.4 km/h 12.9 km/h 74% 0.0 mm 332 W/m2
12:20 19.9 °C 14.9 °C 1013.2 hPa West 3.2 km/h 12.9 km/h 73% 0.0 mm 448 W/m2
12:25 20.2 °C 14.6 °C 1013.2 hPa WNW 7.9 km/h 17.7 km/h 70% 0.0 mm 448 W/m2
12:30 20.3 °C 14.2 °C 1013.2 hPa West 17.7 km/h 20.9 km/h 68% 0.0 mm 394 W/m2
12:36 20.3 °C 14.6 °C 1013.2 hPa NW 3.2 km/h 11.3 km/h 70% 0.0 mm 545 W/m2
12:41 20.6 °C 14.7 °C 1013.2 hPa WNW 6.4 km/h 17.7 km/h 69% 0.0 mm 446 W/m2
12:46 20.7 °C 14.4 °C 1013.2 hPa WNW 4.7 km/h 14.5 km/h 67% 0.0 mm 483 W/m2
12:51 20.8 °C 14.4 °C 1013.2 hPa West 9.7 km/h 16.1 km/h 67% 0.0 mm 369 W/m2
12:56 20.7 °C 14.4 °C 1013.2 hPa West 11.1 km/h 12.9 km/h 67% 0.0 mm 302 W/m2
13:01 20.6 °C 14.5 °C 1013.5 hPa NW 9.7 km/h 16.1 km/h 68% 0.0 mm 230 W/m2
13:06 20.4 °C 14.3 °C 1013.2 hPa NW 4.7 km/h 16.1 km/h 68% 0.0 mm 255 W/m2
13:11 20.4 °C 14.3 °C 1013.5 hPa WNW 1.4 km/h 16.1 km/h 68% 0.0 mm 211 W/m2
13:16 20.3 °C 14.4 °C 1013.5 hPa West 9.7 km/h 9.7 km/h 69% 0.0 mm 230 W/m2
13:21 20.3 °C 14.4 °C 1013.5 hPa WNW 4.7 km/h 8 km/h 69% 0.0 mm 357 W/m2
13:26 20.4 °C 14.5 °C 1013.5 hPa WNW 3.2 km/h 9.7 km/h 69% 0.0 mm 362 W/m2
13:31 20.6 °C 14.7 °C 1013.5 hPa SW 6.4 km/h 14.5 km/h 69% 0.0 mm 350 W/m2
13:36 20.8 °C 14.7 °C 1013.5 hPa WNW 6.4 km/h 6.4 km/h 68% 0.0 mm 294 W/m2
13:41 20.9 °C 14.5 °C 1013.5 hPa NNW 13 km/h 16.1 km/h 67% 0.0 mm 339 W/m2
13:46 21.1 °C 14.5 °C 1013.5 hPa WNW 7.9 km/h 20.9 km/h 66% 0.0 mm 656 W/m2
13:51 21.4 °C 15 °C 1013.5 hPa North 1.4 km/h 11.3 km/h 67% 0.0 mm 863 W/m2
13:56 21.7 °C 14.8 °C 1013.5 hPa West 6.4 km/h 20.9 km/h 65% 0.0 mm 740 W/m2
14:01 22.1 °C 14.7 °C 1013.5 hPa SW 9.7 km/h 14.5 km/h 63% 0.0 mm 1063 W/m2
14:06 22.2 °C 14.3 °C 1013.5 hPa NNW 7.9 km/h 22.5 km/h 61% 0.0 mm 824 W/m2
14:11 22.3 °C 14.7 °C 1013.5 hPa WNW 13 km/h 16.1 km/h 62% 0.0 mm 439 W/m2
14:16 22.3 °C 14.4 °C 1013.5 hPa West 9.7 km/h 16.1 km/h 61% 0.0 mm 497 W/m2
14:21 22.6 °C 14.2 °C 1013.5 hPa West 6.4 km/h 16.1 km/h 59% 0.0 mm 772 W/m2
14:26 22.6 °C 14.2 °C 1013.5 hPa West 13 km/h 12.9 km/h 59% 0.0 mm 494 W/m2
14:31 22.6 °C 14.4 °C 1013.5 hPa West 9.7 km/h 11.3 km/h 60% 0.0 mm 432 W/m2
14:36 22.2 °C 14.1 °C 1013.5 hPa WNW 4.7 km/h 19.3 km/h 60% 0.0 mm 255 W/m2
14:41 22.1 °C 14.5 °C 1013.9 hPa WNW 7.9 km/h 14.5 km/h 62% 0.0 mm 169 W/m2
14:46 21.9 °C 14.3 °C 1013.5 hPa West 11.1 km/h 19.3 km/h 62% 0.0 mm 197 W/m2
14:51 21.8 °C 14.2 °C 1013.9 hPa NNW 9.7 km/h 14.5 km/h 62% 0.0 mm 281 W/m2
14:56 21.8 °C 14.2 °C 1013.5 hPa NW 6.4 km/h 17.7 km/h 62% 0.0 mm 410 W/m2
15:01 21.9 °C 14.3 °C 1013.5 hPa West 9.7 km/h 9.7 km/h 62% 0.0 mm 327 W/m2
15:06 21.9 °C 14.3 °C 1013.5 hPa West 13 km/h 17.7 km/h 62% 0.0 mm 287 W/m2
15:11 21.8 °C 14.2 °C 1013.5 hPa SW 4.7 km/h 12.9 km/h 62% 0.0 mm 216 W/m2
15:16 21.8 °C 14.2 °C 1013.5 hPa NW 7.9 km/h 11.3 km/h 62% 0.0 mm 260 W/m2
15:21 21.7 °C 14.1 °C 1013.9 hPa WSW 6.4 km/h 16.1 km/h 62% 0.0 mm 255 W/m2
15:31 21.6 °C 13.8 °C 1013.9 hPa WSW 7.9 km/h 17.7 km/h 61% 0.0 mm 197 W/m2
15:36 21.4 °C 13.8 °C 1014.2 hPa WSW 22.5 km/h 22.5 km/h 62% 0.0 mm 209 W/m2
15:46 21.3 °C 14 °C 1014.2 hPa NW 9.7 km/h 16.1 km/h 63% 0.0 mm 251 W/m2
15:51 21.3 °C 14 °C 1014.2 hPa WNW 6.4 km/h 19.3 km/h 63% 0.0 mm 255 W/m2
15:56 21.2 °C 13.9 °C 1014.2 hPa NW 14.3 km/h 14.5 km/h 63% 0.0 mm 236 W/m2
16:01 21.2 °C 13.9 °C 1014.2 hPa NW 6.4 km/h 14.5 km/h 63% 0.0 mm 225 W/m2
16:06 21.2 °C 13.9 °C 1014.2 hPa NW 7.9 km/h 12.9 km/h 63% 0.0 mm 202 W/m2
16:11 21.2 °C 14.1 °C 1014.2 hPa WNW 4.7 km/h 8 km/h 64% 0.0 mm 211 W/m2
16:16 21.1 °C 14 °C 1014.2 hPa WNW 4.7 km/h 12.9 km/h 64% 0.0 mm 230 W/m2
16:21 21.2 °C 14.1 °C 1014.2 hPa WNW 4.7 km/h 12.9 km/h 64% 0.0 mm 269 W/m2
16:26 21.2 °C 14.1 °C 1014.2 hPa WSW 7.9 km/h 9.7 km/h 64% 0.0 mm 292 W/m2
16:31 21.2 °C 14.1 °C 1014.2 hPa WSW 4.7 km/h 8 km/h 64% 0.0 mm 272 W/m2
16:36 21.3 °C 13.7 °C 1014.2 hPa WSW 14.3 km/h 14.5 km/h 62% 0.0 mm 241 W/m2
16:41 21.2 °C 13.6 °C 1014.2 hPa West 9.7 km/h 16.1 km/h 62% 0.0 mm 232 W/m2
16:47 21.2 °C 13.6 °C 1014.2 hPa West 3.2 km/h 11.3 km/h 62% 0.0 mm 227 W/m2
16:52 21.2 °C 13.6 °C 1014.2 hPa WSW 14.3 km/h 14.5 km/h 62% 0.0 mm 229 W/m2
16:57 21.2 °C 13.9 °C 1014.6 hPa WNW 4.7 km/h 8 km/h 63% 0.0 mm 232 W/m2
17:02 21.2 °C 13.9 °C 1014.6 hPa West 14.3 km/h 14.5 km/h 63% 0.0 mm 216 W/m2
17:07 21.2 °C 13.9 °C 1014.6 hPa West 3.2 km/h 14.5 km/h 63% 0.0 mm 183 W/m2
17:12 21.2 °C 13.9 °C 1014.6 hPa West 4.7 km/h 19.3 km/h 63% 0.0 mm 179 W/m2
17:17 21 °C 13.7 °C 1014.6 hPa WNW 4.7 km/h 14.5 km/h 63% 0.0 mm 179 W/m2
17:22 20.9 °C 13.6 °C 1014.6 hPa West 13 km/h 20.9 km/h 63% 0.0 mm 169 W/m2
17:27 20.8 °C 13.5 °C 1014.6 hPa West 9.7 km/h 12.9 km/h 63% 0.0 mm 167 W/m2
17:32 20.8 °C 13.3 °C 1014.2 hPa West 11.1 km/h 16.1 km/h 62% 0.0 mm 193 W/m2
17:37 20.8 °C 13.5 °C 1014.2 hPa SW 7.9 km/h 9.7 km/h 63% 0.0 mm 204 W/m2
17:42 20.8 °C 13.3 °C 1014.2 hPa West 13 km/h 16.1 km/h 62% 0.0 mm 190 W/m2
17:47 20.8 °C 13.3 °C 1014.2 hPa WSW 11.1 km/h 12.9 km/h 62% 0.0 mm 174 W/m2
17:52 20.7 °C 13.2 °C 1014.2 hPa WNW 16.1 km/h 16.1 km/h 62% 0.0 mm 179 W/m2
17:57 20.7 °C 13.2 °C 1014.2 hPa WNW 6.4 km/h 9.7 km/h 62% 0.0 mm 176 W/m2
18:02 20.7 °C 13.2 °C 1014.2 hPa WNW 4.7 km/h 6.4 km/h 62% 0.0 mm 162 W/m2
18:07 20.8 °C 13.3 °C 1014.2 hPa West 4.7 km/h 9.7 km/h 62% 0.0 mm 155 W/m2
18:12 20.8 °C 13.3 °C 1014.2 hPa NW 1.4 km/h 6.4 km/h 62% 0.0 mm 155 W/m2
18:17 20.8 °C 13.3 °C 1014.2 hPa WNW 6.4 km/h 12.9 km/h 62% 0.0 mm 148 W/m2
18:22 20.8 °C 13.5 °C 1014.2 hPa WNW 6.4 km/h 8 km/h 63% 0.0 mm 139 W/m2
18:27 20.7 °C 13.4 °C 1014.6 hPa West 3.2 km/h 6.4 km/h 63% 0.0 mm 121 W/m2
18:32 20.7 °C 13.4 °C 1014.2 hPa WNW 3.2 km/h 9.7 km/h 63% 0.0 mm 121 W/m2
18:37 20.6 °C 13.3 °C 1014.6 hPa WNW 3.2 km/h 4.8 km/h 63% 0.0 mm 139 W/m2
18:42 20.6 °C 13.3 °C 1014.6 hPa WNW 1.4 km/h 8 km/h 63% 0.0 mm 135 W/m2
18:47 20.6 °C 13.3 °C 1014.6 hPa WNW 4.7 km/h 6.4 km/h 63% 0.0 mm 134 W/m2
18:52 20.6 °C 13.6 °C 1014.6 hPa WNW 3.2 km/h 6.4 km/h 64% 0.0 mm 123 W/m2
18:57 20.6 °C 13.6 °C 1014.6 hPa West 3.2 km/h 6.4 km/h 64% 0.0 mm 128 W/m2
19:02 20.7 °C 13.6 °C 1014.6 hPa WSW 6.4 km/h 6.4 km/h 64% 0.0 mm 149 W/m2
19:07 20.7 °C 13.4 °C 1014.6 hPa West 1.4 km/h 6.4 km/h 63% 0.0 mm 148 W/m2
19:12 20.8 °C 13.7 °C 1014.6 hPa WSW 7.9 km/h 8 km/h 64% 0.0 mm 134 W/m2
19:17 20.8 °C 13.7 °C 1014.6 hPa WNW 6.4 km/h 9.7 km/h 64% 0.0 mm 134 W/m2
19:22 20.8 °C 13.7 °C 1014.6 hPa WSW 3.2 km/h 4.8 km/h 64% 0.0 mm 146 W/m2
19:27 20.9 °C 13.8 °C 1014.6 hPa SW 1.4 km/h 4.8 km/h 64% 0.0 mm 130 W/m2
19:32 20.8 °C 13.7 °C 1014.6 hPa WNW 4.7 km/h 9.7 km/h 64% 0.0 mm 109 W/m2
19:37 20.8 °C 13.7 °C 1014.6 hPa West 3.2 km/h 8 km/h 64% 0.0 mm 91 W/m2
19:42 20.7 °C 13.9 °C 1014.9 hPa SW 3.2 km/h 4.8 km/h 65% 0.0 mm 58 W/m2
19:47 20.7 °C 13.6 °C 1014.9 hPa WNW 3.2 km/h 11.3 km/h 64% 0.0 mm 21 W/m2
19:52 20.6 °C 13.6 °C 1014.9 hPa NW 1.4 km/h 12.9 km/h 64% 0.0 mm 11 W/m2
19:57 20.3 °C 13.5 °C 1014.9 hPa WNW 3.2 km/h 9.7 km/h 65% 0.0 mm 7 W/m2
20:02 20.1 °C 13.8 °C 1014.9 hPa West 4.7 km/h 14.5 km/h 67% 0.0 mm 11 W/m2
20:07 19.9 °C 13.6 °C 1014.9 hPa WNW 4.7 km/h 6.4 km/h 67% 0.0 mm 16 W/m2
20:12 19.8 °C 13.5 °C 1014.9 hPa NW 6.4 km/h 14.5 km/h 67% 0.0 mm 26 W/m2
20:17 19.8 °C 13.5 °C 1014.9 hPa WNW 3.2 km/h 6.4 km/h 67% 0.0 mm 44 W/m2
20:22 19.7 °C 13.2 °C 1014.9 hPa NW 13 km/h 12.9 km/h 66% 0.0 mm 62 W/m2
20:27 19.8 °C 13 °C 1015.2 hPa NW 7.9 km/h 11.3 km/h 65% 0.0 mm 123 W/m2
20:32 20.1 °C 13.1 °C 1015.6 hPa WNW 3.2 km/h 12.9 km/h 64% 0.0 mm 109 W/m2
20:37 20.2 °C 13.2 °C 1015.6 hPa NNW 6.4 km/h 8 km/h 64% 0.0 mm 114 W/m2
20:42 20.2 °C 12.9 °C 1015.6 hPa West 9.7 km/h 12.9 km/h 63% 0.0 mm 109 W/m2
20:47 20.1 °C 13.1 °C 1015.6 hPa SW 7.9 km/h 11.3 km/h 64% 0.0 mm 100 W/m2
20:52 20 °C 12.7 °C 1015.6 hPa NNW 4.7 km/h 12.9 km/h 63% 0.0 mm 123 W/m2
20:57 19.9 °C 12.6 °C 1015.6 hPa West 14.3 km/h 14.5 km/h 63% 0.0 mm 93 W/m2
21:02 19.8 °C 12.8 °C 1015.6 hPa NNE 3.2 km/h 8 km/h 64% 0.0 mm 67 W/m2
21:07 19.6 °C 12.6 °C 1015.6 hPa West 11.1 km/h 12.9 km/h 64% 0.0 mm 70 W/m2
21:12 19.3 °C 12.8 °C 1015.9 hPa West 3.2 km/h 17.7 km/h 66% 0.0 mm 62 W/m2
21:17 19.2 °C 12.9 °C 1015.9 hPa NNW 3.2 km/h 14.5 km/h 67% 0.0 mm 56 W/m2
21:22 19 °C 12.7 °C 1015.9 hPa NNW 3.2 km/h 12.9 km/h 67% 0.0 mm 49 W/m2
21:27 18.9 °C 12.9 °C 1015.9 hPa WNW 4.7 km/h 6.4 km/h 68% 0.0 mm 32 W/m2
21:32 18.8 °C 12.8 °C 1015.9 hPa West 4.7 km/h 11.3 km/h 68% 0.0 mm 32 W/m2
21:37 18.7 °C 12.9 °C 1016.3 hPa WNW 4.7 km/h 4.8 km/h 69% 0.0 mm 28 W/m2
21:43 18.5 °C 12.9 °C 1016.3 hPa NW 1.4 km/h 16.1 km/h 70% 0.0 mm 19 W/m2
21:48 18.4 °C 12.8 °C 1016.3 hPa NNW 3.2 km/h 6.4 km/h 70% 0.0 mm 12 W/m2
21:53 18.3 °C 13 °C 1016.3 hPa NNW 6.4 km/h 16.1 km/h 71% 0.0 mm 7 W/m2
21:58 18.3 °C 13 °C 1016.3 hPa West 11.1 km/h 11.3 km/h 71% 0.0 mm 0 W/m2
22:03 18.3 °C 13 °C 1016.3 hPa NW 1.4 km/h 6.4 km/h 71% 0.0 mm 0 W/m2
22:08 18.2 °C 12.9 °C 1016.3 hPa West 4.7 km/h 6.4 km/h 71% 0.0 mm 0 W/m2
22:13 18.2 °C 13.1 °C 1016.6 hPa WNW 6.4 km/h 6.4 km/h 72% 0.0 mm 0 W/m2
22:18 18.1 °C 13 °C 1016.6 hPa NW 1.4 km/h 4.8 km/h 72% 0.0 mm 0 W/m2
22:23 18 °C 12.9 °C 1016.9 hPa WNW 3.2 km/h 12.9 km/h 72% 0.0 mm 0 W/m2
22:28 17.9 °C 13 °C 1016.9 hPa NW 6.4 km/h 8 km/h 73% 0.0 mm 0 W/m2
22:33 17.9 °C 13 °C 1016.9 hPa West 6.4 km/h 12.9 km/h 73% 0.0 mm 0 W/m2
22:38 17.8 °C 12.9 °C 1016.9 hPa North 6.4 km/h 6.4 km/h 73% 0.0 mm 0 W/m2
22:43 17.8 °C 12.9 °C 1016.9 hPa NW 7.9 km/h 12.9 km/h 73% 0.0 mm 0 W/m2
22:48 17.7 °C 12.8 °C 1017.3 hPa West 3.2 km/h 8 km/h 73% 0.0 mm 0 W/m2
22:53 17.6 °C 12.7 °C 1017.3 hPa NW 6.4 km/h 12.9 km/h 73% 0.0 mm 0 W/m2
22:58 17.6 °C 12.7 °C 1017.3 hPa West 1.4 km/h 6.4 km/h 73% 0.0 mm 0 W/m2
23:03 17.6 °C 12.7 °C 1017.3 hPa NW 3.2 km/h 6.4 km/h 73% 0.0 mm 0 W/m2
23:08 17.6 °C 12.7 °C 1017.3 hPa West 4.7 km/h 6.4 km/h 73% 0.0 mm 0 W/m2
23:13 17.5 °C 12.6 °C 1017.3 hPa NW 1.4 km/h 11.3 km/h 73% 0.0 mm 0 W/m2
23:18 17.4 °C 12.5 °C 1017.3 hPa North 1.4 km/h 6.4 km/h 73% 0.0 mm 0 W/m2
23:23 17.4 °C 12.5 °C 1017.6 hPa WNW 4.7 km/h 6.4 km/h 73% 0.0 mm 0 W/m2
23:28 17.4 °C 12.5 °C 1017.3 hPa West 4.7 km/h 8 km/h 73% 0.0 mm 0 W/m2
23:33 17.3 °C 12.2 °C 1017.6 hPa WNW 6.4 km/h 11.3 km/h 72% 0.0 mm 0 W/m2
23:38 17.3 °C 12.2 °C 1017.6 hPa NW 1.4 km/h 6.4 km/h 72% 0.0 mm 0 W/m2
23:43 17.3 °C 12 °C 1017.6 hPa NW 3.2 km/h 12.9 km/h 71% 0.0 mm 0 W/m2
23:48 17.3 °C 12.2 °C 1017.6 hPa WNW 3.2 km/h 6.4 km/h 72% 0.0 mm 0 W/m2
23:53 17.2 °C 12.1 °C 1018.0 hPa NW 1.4 km/h 12.9 km/h 72% 0.0 mm 0 W/m2
23:58 17.2 °C 12.1 °C 1018.0 hPa WNW 6.4 km/h 6.4 km/h 72% 0.0 mm 0 W/m2
Juneau County Weather
Compliments of Weather Underground - 4 mb